createdAt,value
2023-10-22T00:01:15.569Z,7.18
2023-10-22T00:06:17.416Z,7.05
2023-10-22T00:11:19.286Z,7.03
2023-10-22T00:16:21.184Z,6.55
2023-10-22T00:21:23.128Z,6.05
2023-10-22T00:26:25.196Z,6.28
2023-10-22T00:31:27.841Z,5.70
2023-10-22T00:36:30.834Z,5.75
2023-10-22T00:41:32.688Z,5.60
2023-10-22T00:46:35.114Z,5.60
2023-10-22T00:51:37.334Z,5.10
2023-10-22T00:56:39.966Z,4.88
2023-10-22T01:01:45.741Z,5.35
2023-10-22T01:06:47.725Z,4.70
2023-10-22T01:12:00.853Z,4.72
2023-10-22T01:17:04.388Z,4.32
2023-10-22T01:22:07.158Z,4.97
2023-10-22T01:27:09.263Z,4.65
2023-10-22T01:32:11.230Z,4.22
2023-10-22T01:37:13.510Z,4.40
2023-10-22T01:42:15.317Z,4.70
2023-10-22T01:47:17.166Z,4.40
2023-10-22T01:52:19.019Z,4.72
2023-10-22T01:57:20.870Z,4.60
2023-10-22T02:02:23.270Z,4.15
2023-10-22T02:07:25.430Z,4.70
2023-10-22T02:12:29.895Z,4.10
2023-10-22T02:17:31.813Z,4.93
2023-10-22T02:22:34.698Z,3.97
2023-10-22T02:27:36.777Z,4.18
2023-10-22T02:32:38.775Z,4.35
2023-10-22T02:37:40.764Z,4.65
2023-10-22T02:42:42.807Z,4.03
2023-10-22T02:47:45.415Z,3.95
2023-10-22T02:52:47.326Z,3.80
2023-10-22T02:57:49.230Z,4.30
2023-10-22T03:02:51.245Z,3.90
2023-10-22T03:07:53.213Z,4.10
2023-10-22T03:12:55.085Z,4.20
2023-10-22T03:17:58.572Z,4.20
2023-10-22T03:23:04.732Z,3.85
2023-10-22T03:28:08.916Z,3.80
2023-10-22T03:33:12.131Z,3.90
2023-10-22T03:38:14.069Z,4.10
2023-10-22T03:43:15.912Z,4.00
2023-10-22T03:48:17.967Z,4.15
2023-10-22T03:53:20.765Z,4.45
2023-10-22T03:58:22.610Z,4.32
2023-10-22T04:03:24.934Z,3.90
2023-10-22T04:08:27.432Z,4.10
2023-10-22T04:13:29.332Z,3.90
2023-10-22T04:18:31.286Z,3.83
2023-10-22T04:23:33.210Z,4.00
2023-10-22T04:28:35.005Z,4.28
2023-10-22T04:33:39.462Z,3.65
2023-10-22T04:38:43.547Z,4.20
2023-10-22T04:43:45.452Z,4.25
2023-10-22T04:48:47.351Z,4.13
2023-10-22T04:58:50.964Z,4.70
2023-10-22T05:03:52.835Z,4.63
2023-10-22T05:08:55.412Z,4.43
2023-10-22T05:13:57.276Z,4.72
2023-10-22T05:18:59.206Z,4.15
2023-10-22T05:24:01.243Z,4.03
2023-10-22T05:29:03.576Z,4.40
2023-10-22T05:34:05.502Z,3.75
2023-10-22T05:39:07.589Z,4.38
2023-10-22T05:44:10.285Z,3.70
2023-10-22T05:49:13.225Z,3.63
2023-10-22T05:54:15.245Z,4.00
2023-10-22T05:59:17.121Z,4.25
2023-10-22T06:04:19.069Z,7.25
2023-10-22T06:09:20.930Z,6.57
2023-10-22T06:14:22.797Z,4.70
2023-10-22T06:19:24.878Z,4.65
2023-10-22T06:24:26.807Z,4.45
2023-10-22T06:29:28.766Z,4.53
2023-10-22T06:34:30.756Z,4.38
2023-10-22T06:39:32.862Z,4.90
2023-10-22T06:44:34.774Z,4.47
2023-10-22T06:49:36.617Z,4.50
2023-10-22T06:54:38.615Z,4.50
2023-10-22T06:59:40.583Z,5.07
2023-10-22T07:04:43.812Z,4.63
2023-10-22T07:09:45.723Z,4.57
2023-10-22T07:14:47.596Z,4.88
2023-10-22T07:19:49.572Z,5.13
2023-10-22T07:24:51.525Z,5.35
2023-10-22T07:29:53.396Z,5.15
2023-10-22T07:34:55.293Z,5.95
2023-10-22T07:39:58.237Z,6.15
2023-10-22T07:45:02.053Z,6.70
2023-10-22T07:50:08.352Z,7.57
2023-10-22T07:55:10.219Z,7.50
2023-10-22T08:00:12.901Z,8.05
2023-10-22T08:05:16.930Z,7.32
2023-10-22T08:10:19.246Z,6.97
2023-10-22T08:15:21.140Z,7.00
2023-10-22T08:20:23.100Z,7.00
2023-10-22T08:25:26.127Z,7.75
2023-10-22T08:30:28.586Z,7.95
2023-10-22T08:35:30.560Z,9.23
2023-10-22T08:40:32.747Z,9.50
2023-10-22T08:45:34.737Z,8.60
2023-10-22T08:50:38.739Z,10.40
2023-10-22T08:55:46.408Z,10.50
2023-10-22T09:00:50.456Z,11.13
2023-10-22T09:05:54.589Z,9.80
2023-10-22T09:10:56.557Z,10.80
2023-10-22T09:15:58.634Z,10.60
2023-10-22T09:21:09.837Z,10.60
2023-10-22T09:26:11.967Z,10.82
2023-10-22T09:31:13.826Z,11.15
2023-10-22T09:36:15.752Z,12.10
2023-10-22T09:41:32.627Z,12.15
2023-10-22T09:46:35.637Z,11.73
2023-10-22T09:51:38.276Z,12.00
2023-10-22T09:56:51.917Z,11.65
2023-10-22T10:01:55.168Z,11.55
2023-10-22T10:06:59.065Z,11.50
2023-10-22T10:12:04.326Z,11.40
2023-10-22T10:17:06.477Z,12.13
2023-10-22T10:22:08.957Z,11.70
2023-10-22T10:27:12.737Z,11.50
2023-10-22T10:32:17.172Z,12.70
2023-10-22T10:37:23.443Z,11.80
2023-10-22T10:42:32.062Z,11.88
2023-10-22T10:47:46.756Z,12.77
2023-10-22T10:52:48.803Z,12.75
2023-10-22T10:57:52.497Z,12.93
2023-10-22T11:02:55.882Z,12.38
2023-10-22T11:07:58.008Z,12.45
2023-10-22T11:13:05.460Z,13.00
2023-10-22T11:18:11.171Z,13.48
2023-10-22T11:23:19.751Z,13.50
2023-10-22T11:28:22.173Z,13.40
2023-10-22T11:33:36.360Z,13.48
2023-10-22T11:38:42.114Z,13.10
2023-10-22T11:43:44.792Z,12.73
2023-10-22T11:48:46.785Z,13.25
2023-10-22T11:53:49.059Z,12.65
2023-10-22T11:58:54.181Z,12.45
2023-10-22T12:03:56.129Z,12.85
2023-10-22T12:08:58.187Z,12.88
2023-10-22T12:14:00.117Z,13.10
2023-10-22T12:19:02.478Z,13.02
2023-10-22T12:24:12.663Z,13.40
2023-10-22T12:29:23.788Z,12.65
2023-10-22T12:34:28.744Z,13.30
2023-10-22T12:39:31.241Z,13.23
2023-10-22T12:44:33.121Z,13.30
2023-10-22T12:49:35.024Z,13.55
2023-10-22T12:54:38.708Z,13.80
2023-10-22T12:59:42.782Z,13.30
2023-10-22T13:04:48.739Z,13.25
2023-10-22T13:09:50.737Z,13.23
2023-10-22T13:14:52.605Z,13.13
2023-10-22T13:19:54.621Z,13.15
2023-10-22T13:24:57.857Z,13.27
2023-10-22T13:30:00.711Z,13.35
2023-10-22T13:35:02.918Z,13.18
2023-10-22T13:40:05.232Z,13.77
2023-10-22T13:45:08.231Z,13.30
2023-10-22T13:50:10.669Z,12.88
2023-10-22T13:55:12.670Z,12.93
2023-10-22T14:00:15.285Z,14.00
2023-10-22T14:05:17.270Z,13.90
2023-10-22T14:10:19.178Z,12.98
2023-10-22T14:15:22.213Z,13.75
2023-10-22T14:20:28.997Z,13.13
2023-10-22T14:25:30.864Z,13.52
2023-10-22T14:30:32.994Z,12.77
2023-10-22T14:35:34.859Z,13.20
2023-10-22T14:40:42.839Z,13.00
2023-10-22T14:45:44.790Z,13.07
2023-10-22T14:50:56.856Z,13.07
2023-10-22T14:56:03.220Z,13.10
2023-10-22T15:01:07.698Z,13.02
2023-10-22T15:06:09.992Z,12.60
2023-10-22T15:11:16.909Z,12.73
2023-10-22T15:16:18.948Z,12.98
2023-10-22T15:21:20.876Z,13.10
2023-10-22T15:26:22.841Z,12.68
2023-10-22T15:31:27.187Z,12.10
2023-10-22T15:36:29.199Z,13.32
2023-10-22T15:41:31.145Z,12.45
2023-10-22T15:46:33.071Z,12.18
2023-10-22T15:51:35.023Z,12.13
2023-10-22T15:56:36.922Z,12.23
2023-10-22T16:01:39.851Z,12.10
2023-10-22T16:06:41.920Z,12.68
2023-10-22T16:11:46.826Z,12.80
2023-10-22T16:16:48.664Z,12.93
2023-10-22T16:21:51.569Z,12.20
2023-10-22T16:26:53.542Z,12.02
2023-10-22T16:31:55.389Z,12.02
2023-10-22T16:36:57.273Z,11.88
2023-10-22T16:41:59.156Z,11.88
2023-10-22T16:47:01.141Z,12.13
2023-10-22T16:52:03.058Z,11.95
2023-10-22T16:57:05.295Z,12.10
2023-10-22T17:02:07.441Z,11.90
2023-10-22T17:07:09.321Z,11.60
2023-10-22T17:12:11.182Z,12.20
2023-10-22T17:17:13.105Z,12.40
2023-10-22T17:22:14.946Z,12.25
2023-10-22T17:27:16.835Z,11.75
2023-10-22T17:32:18.754Z,12.52
2023-10-22T17:37:20.641Z,12.68
2023-10-22T17:42:22.504Z,12.18
2023-10-22T17:47:24.488Z,12.45
2023-10-22T17:52:26.422Z,12.55
2023-10-22T17:57:28.341Z,13.02
2023-10-22T18:02:30.325Z,12.32
2023-10-22T18:07:32.235Z,11.75
2023-10-22T18:12:34.136Z,12.02
2023-10-22T18:17:36.061Z,12.32
2023-10-22T18:22:37.920Z,13.30
2023-10-22T18:27:39.813Z,12.10
2023-10-22T18:32:41.737Z,11.88
2023-10-22T18:37:43.659Z,12.05
2023-10-22T18:42:48.760Z,12.00
2023-10-22T18:47:50.710Z,11.20
2023-10-22T18:52:52.573Z,11.90
2023-10-22T18:57:54.508Z,11.43
2023-10-22T19:02:56.606Z,11.88
2023-10-22T19:07:59.296Z,11.30
2023-10-22T19:13:01.300Z,11.80
2023-10-22T19:18:04.552Z,11.57
2023-10-22T19:23:07.941Z,11.77
2023-10-22T19:28:09.790Z,11.98
2023-10-22T19:33:12.302Z,12.23
2023-10-22T19:38:14.512Z,10.82
2023-10-22T19:43:16.413Z,11.23
2023-10-22T19:48:19.119Z,11.52
2023-10-22T19:53:20.975Z,11.40
2023-10-22T19:58:23.537Z,12.00
2023-10-22T20:03:25.683Z,12.88
2023-10-22T20:08:27.717Z,12.02
2023-10-22T20:13:29.582Z,12.40
2023-10-22T20:18:31.558Z,11.45
2023-10-22T20:28:35.123Z,12.20
2023-10-22T20:33:37.214Z,12.60
2023-10-22T20:38:39.432Z,13.40
2023-10-22T20:43:42.281Z,13.02
2023-10-22T20:48:44.317Z,12.10
2023-10-22T20:53:47.191Z,11.80
2023-10-22T20:58:49.121Z,12.15
2023-10-22T21:03:51.865Z,12.13
2023-10-22T21:08:55.635Z,12.30
2023-10-22T21:13:57.562Z,11.43
2023-10-22T21:18:59.457Z,10.90
2023-10-22T21:24:02.147Z,10.63
2023-10-22T21:29:04.324Z,10.73
2023-10-22T21:34:06.852Z,9.70
2023-10-22T21:39:08.719Z,9.52
2023-10-22T21:44:10.586Z,9.30
2023-10-22T21:49:12.503Z,8.05
2023-10-22T21:54:14.488Z,9.07
2023-10-22T21:59:16.362Z,8.55
2023-10-22T22:04:20.762Z,7.93
2023-10-22T22:09:22.752Z,8.02
2023-10-22T22:14:24.626Z,8.10
2023-10-22T22:19:26.472Z,7.95
2023-10-22T22:24:28.354Z,8.00
2023-10-22T22:29:30.407Z,7.22
2023-10-22T22:34:32.220Z,7.55
2023-10-22T22:39:34.118Z,7.53
2023-10-22T22:44:36.283Z,6.38
2023-10-22T22:49:38.385Z,6.85
2023-10-22T22:54:40.462Z,7.53
2023-10-22T22:59:46.552Z,6.25
2023-10-22T23:04:49.928Z,7.82
2023-10-22T23:09:53.011Z,7.25
2023-10-22T23:14:55.027Z,6.43
2023-10-22T23:19:56.880Z,8.13
2023-10-22T23:24:58.765Z,6.28
2023-10-22T23:30:00.756Z,7.15
2023-10-22T23:35:02.736Z,5.85
2023-10-22T23:40:05.100Z,6.70
2023-10-22T23:45:07.196Z,6.65
2023-10-22T23:50:09.160Z,6.22
2023-10-22T23:55:11.003Z,6.18
